San Marin, California
Current Conditions -  °F | °C
As of 8:15 AM on Saturday 20 Dec 2014 (Local Time) from KDVO Reporting Station
Haze Haze  
Wind Chill: 54°   Ceiling: NA
Heat Index: 54°   Visibility: 0.75mi
Dew Point: 54°   Wind: 0mph
Humidity: 100%   Direction: NA
Pressure: 30.2"   Gusts: NA
Location:  38.1262°N, 122.559°W
Report Text: KDVO 201615Z AUTO 00000KT 3/4SM BR 12/12 A3020 RMK AO2
Loading
Personal Weather Stations






























Interactive Weather Map New forecast layout! Learn more

10-Day Weather Forecast

Advertisements
Track Severe Weather on mobile